createdAt,value
2018-03-04T00:00:06.209Z,94.98
2018-03-04T00:01:06.171Z,95.26
2018-03-04T00:02:05.890Z,94.98
2018-03-04T00:03:06.104Z,94.98
2018-03-04T00:04:06.073Z,95.36
2018-03-04T00:05:06.035Z,94.98
2018-03-04T00:06:06.001Z,95.07
2018-03-04T00:07:05.720Z,94.98
2018-03-04T00:08:05.933Z,95.26
2018-03-04T00:09:05.898Z,95.36
2018-03-04T00:10:05.865Z,95.36
2018-03-04T00:11:05.581Z,94.98
2018-03-04T00:12:05.795Z,94.89
2018-03-04T00:13:05.772Z,95.17
2018-03-04T00:14:05.734Z,94.98
2018-03-04T00:15:05.693Z,94.89
2018-03-04T00:16:05.406Z,94.98
2018-03-04T00:17:05.622Z,94.89
2018-03-04T00:18:05.589Z,94.89
2018-03-04T00:19:05.564Z,95.07
2018-03-04T00:20:05.521Z,94.37
2018-03-04T00:21:05.486Z,94.41
2018-03-04T00:22:05.451Z,94.51
2018-03-04T00:23:05.168Z,94.46
2018-03-04T00:24:05.384Z,94.22
2018-03-04T00:25:05.352Z,94.51
2018-03-04T00:26:05.067Z,94.37
2018-03-04T00:27:05.288Z,94.65
2018-03-04T00:28:05.249Z,94.65
2018-03-04T00:29:05.208Z,94.74
2018-03-04T00:30:04.930Z,94.37
2018-03-04T00:31:04.893Z,94.56
2018-03-04T00:32:04.862Z,94.65
2018-03-04T00:33:04.831Z,94.65
2018-03-04T00:34:04.792Z,94.74
2018-03-04T00:35:05.010Z,94.46
2018-03-04T00:36:04.973Z,94.56
2018-03-04T00:37:04.937Z,94.27
2018-03-04T00:38:04.906Z,94.37
2018-03-04T00:39:04.875Z,94.65
2018-03-04T00:40:04.841Z,94.56
2018-03-04T00:41:04.804Z,94.65
2018-03-04T00:42:04.771Z,94.56
2018-03-04T00:43:04.738Z,94.27
2018-03-04T00:44:04.708Z,94.56
2018-03-04T00:45:04.677Z,94.37
2018-03-04T00:46:04.633Z,94.27
2018-03-04T00:47:04.625Z,94.27
2018-03-04T00:48:04.570Z,94.56
2018-03-04T00:49:04.284Z,94.37
2018-03-04T00:50:04.249Z,94.74
2018-03-04T00:51:04.465Z,94.27
2018-03-04T00:52:04.180Z,94.46
2018-03-04T00:53:04.399Z,94.46
2018-03-04T00:54:04.367Z,94.56
2018-03-04T00:55:04.334Z,94.37
2018-03-04T00:56:04.295Z,94.37
2018-03-04T00:57:04.265Z,94.37
2018-03-04T00:58:04.227Z,94.74
2018-03-04T00:59:04.195Z,94.56
2018-03-04T01:00:04.162Z,94.08
2018-03-04T01:01:04.130Z,93.89
2018-03-04T01:02:03.843Z,94.08
2018-03-04T01:03:04.068Z,93.99
2018-03-04T01:04:04.024Z,93.89
2018-03-04T01:05:03.992Z,93.99
2018-03-04T01:06:03.960Z,93.89
2018-03-04T01:07:03.924Z,93.8
2018-03-04T01:08:03.892Z,93.8
2018-03-04T01:09:03.853Z,94.18
2018-03-04T01:10:03.832Z,93.89
2018-03-04T01:11:03.788Z,93.99
2018-03-04T01:12:03.509Z,93.99
2018-03-04T01:13:03.474Z,93.99
2018-03-04T01:14:03.688Z,94.08
2018-03-04T01:15:03.657Z,94.27
2018-03-04T01:16:03.625Z,94.08
2018-03-04T01:17:03.586Z,93.99
2018-03-04T01:18:03.306Z,94.08
2018-03-04T01:19:03.272Z,93.99
2018-03-04T01:20:03.238Z,93.7
2018-03-04T01:21:03.204Z,93.89
2018-03-04T01:22:03.421Z,93.89
2018-03-04T01:23:03.384Z,93.8
2018-03-04T01:24:03.106Z,93.89
2018-03-04T01:25:03.322Z,93.89
2018-03-04T01:26:03.283Z,93.8
2018-03-04T01:27:03.253Z,93.8
2018-03-04T01:28:03.308Z,93.51
2018-03-04T01:29:03.190Z,93.32
2018-03-04T01:30:02.905Z,93.42
2018-03-04T01:31:03.121Z,93.13
2018-03-04T01:32:03.085Z,93.51
2018-03-04T01:33:03.057Z,93.23
2018-03-04T01:34:03.020Z,93.13
2018-03-04T01:35:02.991Z,93.13
2018-03-04T01:36:02.704Z,93.13
2018-03-04T01:37:02.921Z,93.04
2018-03-04T01:38:02.884Z,93.04
2018-03-04T01:39:02.604Z,93.04
2018-03-04T01:40:02.822Z,93.04
2018-03-04T01:41:02.545Z,93.23
2018-03-04T01:42:02.506Z,93.47
2018-03-04T01:43:02.719Z,93.23
2018-03-04T01:44:02.439Z,93.18
2018-03-04T01:45:02.408Z,92.99
2018-03-04T01:46:02.630Z,93.56
2018-03-04T01:47:02.589Z,93.28
2018-03-04T01:48:02.337Z,93.28
2018-03-04T01:49:02.274Z,93.32
2018-03-04T01:50:02.491Z,93.32
2018-03-04T01:51:02.209Z,93.47
2018-03-04T01:52:02.426Z,93.51
2018-03-04T01:53:02.392Z,93.18
2018-03-04T01:54:02.357Z,93.09
2018-03-04T01:55:02.328Z,92.9
2018-03-04T01:56:02.044Z,92.9
2018-03-04T01:57:02.260Z,92.99
2018-03-04T01:58:02.225Z,92.9
2018-03-04T01:59:02.191Z,93.09
2018-03-04T02:00:02.168Z,92.52
2018-03-04T02:01:02.129Z,92.99
2018-03-04T02:02:02.094Z,92.52
2018-03-04T02:03:02.060Z,92.61
2018-03-04T02:04:02.030Z,92.8
2018-03-04T02:05:01.994Z,92.52
2018-03-04T02:06:01.973Z,92.71
2018-03-04T02:07:01.929Z,92.9
2018-03-04T02:08:01.901Z,92.33
2018-03-04T02:09:01.859Z,92.33
2018-03-04T02:10:01.832Z,92.33
2018-03-04T02:11:01.797Z,92.71
2018-03-04T02:12:01.770Z,92.71
2018-03-04T02:13:01.482Z,93.18
2018-03-04T02:14:01.452Z,92.99
2018-03-04T02:15:01.666Z,92.9
2018-03-04T02:16:01.383Z,93.47
2018-03-04T02:17:01.600Z,92.71
2018-03-04T02:18:01.565Z,92.71
2018-03-04T02:19:01.535Z,93.18
2018-03-04T02:20:01.502Z,93.37
2018-03-04T02:21:01.471Z,92.99
2018-03-04T02:22:01.435Z,92.99
2018-03-04T02:23:01.405Z,92.71
2018-03-04T02:24:01.371Z,92.43
2018-03-04T02:25:01.343Z,92.52
2018-03-04T02:26:01.305Z,92.61
2018-03-04T02:27:01.268Z,93.56
2018-03-04T02:28:01.241Z,93.09
2018-03-04T02:29:01.208Z,93.18
2018-03-04T02:30:01.247Z,93.09
2018-03-04T02:31:01.157Z,93.09
2018-03-04T02:32:01.117Z,93.09
2018-03-04T02:33:01.082Z,92.99
2018-03-04T02:34:01.044Z,93.18
2018-03-04T02:35:01.013Z,93.09
2018-03-04T02:36:00.977Z,93.09
2018-03-04T02:37:00.946Z,93.18
2018-03-04T02:38:00.922Z,93.18
2018-03-04T02:39:00.883Z,93.28
2018-03-04T02:40:00.851Z,93.37
2018-03-04T02:41:00.817Z,93.75
2018-03-04T02:42:00.784Z,93.94
2018-03-04T02:43:00.747Z,93.66
2018-03-04T02:44:00.722Z,93.94
2018-03-04T02:45:00.691Z,93.84
2018-03-04T02:46:00.653Z,93.94
2018-03-04T02:47:00.627Z,94.32
2018-03-04T02:48:00.588Z,94.13
2018-03-04T02:49:00.554Z,94.13
2018-03-04T02:50:00.273Z,93.75
2018-03-04T02:51:00.497Z,94.51
2018-03-04T02:52:00.460Z,94.79
2018-03-04T02:53:00.423Z,94.22
2018-03-04T02:54:00.395Z,94.13
2018-03-04T02:55:00.112Z,94.89
2018-03-04T02:56:00.325Z,94.7
2018-03-04T02:57:00.305Z,94.65
2018-03-04T02:58:00.015Z,95.21
2018-03-04T02:58:59.981Z,95.03
2018-03-04T02:59:59.947Z,95.4
2018-03-04T03:01:00.088Z,95.21
2018-03-04T03:02:00.348Z,95.03
2018-03-04T03:03:00.314Z,95.59
2018-03-04T03:03:59.817Z,95.5
2018-03-04T03:05:00.038Z,95.12
2018-03-04T03:06:00.013Z,95.78
2018-03-04T03:06:59.975Z,95.5
2018-03-04T03:07:59.688Z,95.4
2018-03-04T03:08:59.905Z,95.64
2018-03-04T03:09:59.873Z,96.02
2018-03-04T03:10:59.840Z,95.26
2018-03-04T03:11:59.813Z,95.26
2018-03-04T03:12:59.776Z,95.74
2018-03-04T03:13:59.745Z,96.21
2018-03-04T03:14:59.716Z,96.02
2018-03-04T03:15:59.682Z,95.83
2018-03-04T03:16:59.649Z,96.02
2018-03-04T03:17:59.622Z,95.83
2018-03-04T03:18:59.591Z,95.93
2018-03-04T03:19:59.553Z,95.45
2018-03-04T03:20:59.522Z,95.36
2018-03-04T03:21:59.491Z,95.74
2018-03-04T03:22:59.457Z,95.36
2018-03-04T03:23:59.426Z,95.45
2018-03-04T03:24:59.398Z,95.4
2018-03-04T03:25:59.367Z,95.59
2018-03-04T03:26:59.083Z,95.88
2018-03-04T03:27:59.303Z,96.45
2018-03-04T03:28:59.265Z,96.26
2018-03-04T03:29:59.238Z,96.35
2018-03-04T03:30:59.314Z,96.35
2018-03-04T03:31:59.172Z,96.35
2018-03-04T03:32:59.139Z,96.64
2018-03-04T03:33:59.111Z,96.54
2018-03-04T03:34:59.081Z,96.45
2018-03-04T03:35:59.047Z,95.97
2018-03-04T03:36:59.014Z,95.78
2018-03-04T03:37:58.983Z,96.35
2018-03-04T03:38:58.952Z,95.88
2018-03-04T03:39:58.920Z,96.07
2018-03-04T03:40:58.887Z,96.16
2018-03-04T03:41:58.851Z,95.97
2018-03-04T03:42:58.824Z,96.16
2018-03-04T03:43:58.792Z,96.45
2018-03-04T03:44:58.760Z,96.16
2018-03-04T03:45:58.727Z,96.26
2018-03-04T03:46:58.693Z,96.16
2018-03-04T03:47:58.666Z,96.45
2018-03-04T03:48:58.633Z,96.73
2018-03-04T03:49:58.598Z,96.54
2018-03-04T03:50:58.567Z,96.83
2018-03-04T03:51:58.551Z,96.83
2018-03-04T03:52:58.505Z,96.83
2018-03-04T03:53:58.474Z,96.83
2018-03-04T03:54:58.441Z,96.64
2018-03-04T03:55:58.408Z,96.64
2018-03-04T03:56:58.377Z,96.54
2018-03-04T03:57:58.346Z,96.45
2018-03-04T03:58:58.314Z,96.54
2018-03-04T03:59:58.034Z,96.54
2018-03-04T04:00:58.250Z,96.54
2018-03-04T04:01:57.966Z,96.73
2018-03-04T04:02:57.935Z,96.83
2018-03-04T04:03:57.903Z,96.45
2018-03-04T04:04:57.874Z,96.73
2018-03-04T04:05:57.840Z,96.92
2018-03-04T04:06:57.812Z,97.2
2018-03-04T04:07:58.021Z,97.01
2018-03-04T04:08:57.988Z,97.67
2018-03-04T04:09:57.961Z,97.67
2018-03-04T04:10:57.926Z,97.39
2018-03-04T04:11:57.892Z,97.67
2018-03-04T04:12:57.860Z,97.67
2018-03-04T04:13:57.830Z,97.39
2018-03-04T04:14:57.799Z,97.49
2018-03-04T04:15:57.768Z,97.77
2018-03-04T04:16:57.733Z,97.77
2018-03-04T04:17:57.700Z,98.05
2018-03-04T04:18:57.670Z,97.77
2018-03-04T04:19:57.635Z,97.96
2018-03-04T04:20:57.358Z,97.77
2018-03-04T04:21:57.328Z,98.1
2018-03-04T04:22:57.295Z,97.72
2018-03-04T04:23:57.511Z,97.72
2018-03-04T04:24:57.483Z,97.91
2018-03-04T04:25:57.446Z,97.53
2018-03-04T04:26:57.415Z,97.44
2018-03-04T04:27:57.382Z,97.44
2018-03-04T04:28:57.352Z,97.58
2018-03-04T04:29:57.319Z,97.25
2018-03-04T04:30:57.288Z,97.25
2018-03-04T04:31:57.006Z,97.2
2018-03-04T04:32:57.224Z,96.92
2018-03-04T04:33:57.192Z,97.86
2018-03-04T04:34:56.912Z,98.14
2018-03-04T04:35:57.127Z,97.77
2018-03-04T04:36:56.848Z,97.77
2018-03-04T04:37:57.062Z,97.77
2018-03-04T04:38:57.041Z,97.58
2018-03-04T04:39:56.752Z,97.67
2018-03-04T04:40:56.722Z,97.58
2018-03-04T04:41:56.951Z,97.3
2018-03-04T04:42:56.905Z,97.49
2018-03-04T04:43:56.874Z,97.49
2018-03-04T04:44:56.842Z,97.58
2018-03-04T04:45:56.805Z,97.49
2018-03-04T04:46:56.778Z,97.49
2018-03-04T04:47:56.748Z,97.77
2018-03-04T04:48:56.714Z,97.77
2018-03-04T04:49:56.679Z,98.14
2018-03-04T04:50:56.653Z,98.33
2018-03-04T04:51:56.617Z,98.24
2018-03-04T04:52:56.337Z,98.33
2018-03-04T04:53:56.626Z,98.05
2018-03-04T04:54:56.520Z,98.05
2018-03-04T04:55:56.488Z,98.24
2018-03-04T04:56:56.461Z,98.14
2018-03-04T04:57:56.427Z,98.33
2018-03-04T04:58:56.393Z,98.33
2018-03-04T04:59:56.116Z,98.33
2018-03-04T05:00:56.326Z,98.81
2018-03-04T05:01:56.296Z,98.71
2018-03-04T05:02:56.267Z,98.14
2018-03-04T05:03:56.233Z,98.33
2018-03-04T05:04:56.209Z,98.62
2018-03-04T05:05:56.167Z,98.05
2018-03-04T05:06:56.285Z,98.14
2018-03-04T05:07:56.106Z,97.96
2018-03-04T05:08:56.078Z,98.14
2018-03-04T05:09:56.042Z,98.05
2018-03-04T05:10:56.014Z,98.05
2018-03-04T05:11:55.982Z,98.14
2018-03-04T05:12:55.946Z,98.62
2018-03-04T05:13:55.667Z,98.52
2018-03-04T05:14:55.635Z,98.62
2018-03-04T05:15:55.851Z,98.43
2018-03-04T05:16:55.572Z,98.43
2018-03-04T05:17:55.794Z,98.52
2018-03-04T05:18:55.756Z,98.14
2018-03-04T05:19:55.735Z,98.43
2018-03-04T05:20:55.443Z,98.43
2018-03-04T05:21:55.664Z,98.43
2018-03-04T05:22:55.380Z,98.24
2018-03-04T05:23:55.348Z,98.24
2018-03-04T05:24:55.319Z,98.43
2018-03-04T05:25:55.536Z,98.05
2018-03-04T05:26:55.503Z,98.05
2018-03-04T05:27:55.474Z,98.14
2018-03-04T05:28:55.192Z,98.14
2018-03-04T05:29:55.407Z,98.33
2018-03-04T05:30:55.373Z,98.62
2018-03-04T05:31:55.346Z,98.62
2018-03-04T05:32:55.317Z,98.77
2018-03-04T05:33:55.279Z,98.58
2018-03-04T05:34:55.246Z,98.77
2018-03-04T05:35:55.222Z,98.48
2018-03-04T05:36:55.187Z,98.39
2018-03-04T05:37:54.904Z,98.39
2018-03-04T05:38:54.874Z,98.39
2018-03-04T05:39:54.845Z,98.39
2018-03-04T05:40:55.063Z,98.1
2018-03-04T05:41:55.026Z,98.1
2018-03-04T05:42:54.749Z,98.48
2018-03-04T05:43:54.968Z,98.39
2018-03-04T05:44:54.935Z,98.67
2018-03-04T05:45:54.655Z,98.48
2018-03-04T05:46:54.871Z,98.58
2018-03-04T05:47:54.593Z,98.48
2018-03-04T05:48:54.809Z,98.58
2018-03-04T05:49:54.777Z,98.2
2018-03-04T05:50:54.748Z,98.29
2018-03-04T05:51:54.714Z,98.29
2018-03-04T05:52:54.693Z,98.29
2018-03-04T05:53:54.656Z,98.39
2018-03-04T05:54:54.622Z,98.44
2018-03-04T05:55:54.592Z,98.72
2018-03-04T05:56:54.605Z,98.72
2018-03-04T05:57:54.537Z,98.25
2018-03-04T05:58:54.500Z,98.63
2018-03-04T05:59:54.471Z,98.44
2018-03-04T06:00:54.436Z,98.34
2018-03-04T06:01:54.409Z,98.34
2018-03-04T06:02:54.375Z,98.15
2018-03-04T06:03:54.342Z,98.06
2018-03-04T06:04:54.316Z,98.34
2018-03-04T06:05:54.284Z,98.15
2018-03-04T06:06:54.251Z,98.06
2018-03-04T06:07:54.219Z,98.06
2018-03-04T06:08:54.191Z,97.87
2018-03-04T06:09:54.161Z,98.39
2018-03-04T06:10:54.130Z,98.11
2018-03-04T06:11:54.098Z,97.92
2018-03-04T06:12:54.066Z,97.92
2018-03-04T06:13:54.050Z,97.92
2018-03-04T06:14:54.009Z,97.92
2018-03-04T06:15:53.979Z,97.92
2018-03-04T06:16:53.945Z,97.73
2018-03-04T06:17:53.924Z,97.82
2018-03-04T06:18:53.638Z,97.92
2018-03-04T06:19:53.609Z,97.82
2018-03-04T06:20:53.832Z,97.73
2018-03-04T06:21:53.793Z,98.11
2018-03-04T06:22:53.767Z,97.92
2018-03-04T06:23:53.744Z,97.92
2018-03-04T06:24:53.708Z,98.11
2018-03-04T06:25:53.676Z,98.01
2018-03-04T06:26:53.646Z,98.01
2018-03-04T06:27:53.370Z,98.01
2018-03-04T06:28:53.584Z,97.44
2018-03-04T06:29:53.562Z,97.44
2018-03-04T06:30:53.525Z,97.54
2018-03-04T06:31:53.496Z,97.63
2018-03-04T06:32:53.470Z,97.82
2018-03-04T06:33:53.437Z,97.73
2018-03-04T06:34:53.408Z,97.35
2018-03-04T06:35:53.376Z,97.54
2018-03-04T06:36:53.350Z,97.35
2018-03-04T06:37:53.314Z,97.35
2018-03-04T06:38:53.289Z,97.35
2018-03-04T06:39:53.253Z,96.97
2018-03-04T06:40:53.231Z,96.78
2018-03-04T06:41:53.204Z,96.92
2018-03-04T06:42:53.172Z,96.97
2018-03-04T06:43:53.145Z,97.21
2018-03-04T06:44:53.107Z,97.16
2018-03-04T06:45:53.079Z,96.69
2018-03-04T06:46:53.056Z,96.92
2018-03-04T06:47:53.025Z,96.83
2018-03-04T06:48:52.992Z,96.92
2018-03-04T06:49:52.963Z,96.83
2018-03-04T06:50:52.933Z,97.02
2018-03-04T06:51:52.902Z,97.02
2018-03-04T06:52:52.874Z,96.45
2018-03-04T06:53:52.598Z,96.45
2018-03-04T06:54:52.812Z,96.73
2018-03-04T06:55:52.787Z,96.83
2018-03-04T06:56:52.755Z,96.17
2018-03-04T06:57:52.728Z,96.36
2018-03-04T06:58:52.451Z,96.26
2018-03-04T06:59:52.673Z,96.36
2018-03-04T07:00:52.390Z,96.64
2018-03-04T07:01:52.363Z,96.64
2018-03-04T07:02:52.584Z,96.26
2018-03-04T07:03:52.562Z,96.36
2018-03-04T07:04:52.608Z,96.64
2018-03-04T07:05:52.494Z,96.55
2018-03-04T07:06:52.470Z,96.64
2018-03-04T07:07:52.439Z,96.73
2018-03-04T07:08:52.161Z,96.73
2018-03-04T07:09:52.382Z,96.17
2018-03-04T07:10:52.350Z,96.17
2018-03-04T07:11:52.075Z,95.98
2018-03-04T07:12:52.292Z,96.36
2018-03-04T07:13:52.268Z,96.26
2018-03-04T07:14:52.234Z,96.36
2018-03-04T07:15:52.209Z,95.98
2018-03-04T07:16:52.179Z,95.41
2018-03-04T07:17:52.149Z,95.98
2018-03-04T07:18:52.130Z,95.88
2018-03-04T07:19:52.093Z,95.88
2018-03-04T07:20:52.064Z,95.98
2018-03-04T07:21:52.034Z,95.41
2018-03-04T07:22:52.006Z,95.98
2018-03-04T07:23:51.979Z,95.69
2018-03-04T07:24:51.702Z,95.69
2018-03-04T07:25:51.923Z,95.31
2018-03-04T07:26:51.896Z,95.98
2018-03-04T07:27:51.861Z,95.5
2018-03-04T07:28:51.838Z,95.5
2018-03-04T07:29:51.816Z,95.69
2018-03-04T07:30:51.530Z,95.69
2018-03-04T07:31:51.755Z,95.31
2018-03-04T07:32:51.720Z,95.41
2018-03-04T07:33:51.695Z,95.22
2018-03-04T07:34:51.665Z,95.41
2018-03-04T07:35:51.641Z,95.03
2018-03-04T07:36:51.606Z,95.03
2018-03-04T07:37:51.333Z,94.93
2018-03-04T07:38:51.305Z,95.22
2018-03-04T07:39:51.526Z,94.93
2018-03-04T07:40:51.495Z,94.84
2018-03-04T07:41:51.469Z,94.93
2018-03-04T07:42:51.443Z,94.65
2018-03-04T07:43:52.071Z,94.65
2018-03-04T07:44:51.397Z,94.23
2018-03-04T07:45:52.381Z,94.51
2018-03-04T07:46:51.341Z,94.46
2018-03-04T07:47:51.307Z,94.32
2018-03-04T07:48:51.273Z,94.51
2018-03-04T07:49:51.251Z,94.32
2018-03-04T07:50:51.222Z,94.23
2018-03-04T07:51:51.199Z,94.13
2018-03-04T07:52:51.170Z,94.13
2018-03-04T07:53:51.139Z,94.13
2018-03-04T07:54:51.152Z,94.32
2018-03-04T07:55:51.089Z,93.84
2018-03-04T07:56:51.057Z,93.84
2018-03-04T07:57:51.031Z,93.84
2018-03-04T07:58:51.008Z,93.65
2018-03-04T07:59:50.977Z,93.46
2018-03-04T08:00:50.947Z,93.37
2018-03-04T08:01:50.921Z,93.75
2018-03-04T08:02:50.892Z,93.65
2018-03-04T08:03:50.866Z,93.18
2018-03-04T08:04:50.836Z,93.18
2018-03-04T08:05:50.561Z,93.27
2018-03-04T08:06:50.779Z,92.9
2018-03-04T08:07:50.757Z,92.99
2018-03-04T08:08:50.738Z,92.99
2018-03-04T08:09:50.699Z,92.99
2018-03-04T08:10:50.677Z,93.08
2018-03-04T08:11:50.652Z,92.52
2018-03-04T08:12:50.624Z,92.8
2018-03-04T08:13:50.595Z,92.8
2018-03-04T08:14:50.567Z,93.08
2018-03-04T08:15:50.546Z,92.52
2018-03-04T08:16:50.270Z,92.42
2018-03-04T08:17:50.488Z,92.42
2018-03-04T08:18:50.463Z,92.57
2018-03-04T08:19:50.436Z,91.9
2018-03-04T08:20:50.409Z,92.09
2018-03-04T08:21:50.380Z,91.9
2018-03-04T08:22:50.357Z,92.09
2018-03-04T08:23:50.570Z,91.9
2018-03-04T08:24:50.057Z,91.71
2018-03-04T08:25:50.275Z,91.99
2018-03-04T08:26:50.251Z,91.99
2018-03-04T08:27:49.977Z,91.33
2018-03-04T08:28:50.203Z,91.33
2018-03-04T08:29:50.171Z,91.05
2018-03-04T08:30:49.900Z,90.86
2018-03-04T08:31:49.875Z,90.71
2018-03-04T08:32:50.099Z,90.33
2018-03-04T08:33:50.070Z,90.33
2018-03-04T08:34:49.798Z,89.95
2018-03-04T08:35:50.020Z,89.86
2018-03-04T08:36:49.997Z,90.24
2018-03-04T08:37:49.972Z,89.29
2018-03-04T08:38:49.948Z,89.58
2018-03-04T08:39:49.922Z,89.29
2018-03-04T08:40:49.903Z,89.29
2018-03-04T08:41:49.873Z,89.48
2018-03-04T08:42:49.850Z,88.91
2018-03-04T08:43:49.855Z,88.57
2018-03-04T08:44:49.551Z,88.67
2018-03-04T08:45:49.808Z,88.95
2018-03-04T08:46:49.749Z,88.39
2018-03-04T08:47:49.729Z,88.39
2018-03-04T08:48:49.703Z,88.2
2018-03-04T08:49:49.675Z,88.29
2018-03-04T08:50:49.713Z,87.72
2018-03-04T08:51:49.631Z,88.01
2018-03-04T08:52:49.606Z,87.62
2018-03-04T08:53:49.577Z,87.53
2018-03-04T08:54:49.306Z,87.34
2018-03-04T08:55:49.282Z,87.15
2018-03-04T08:56:49.505Z,86.58
2018-03-04T08:57:49.234Z,86.87
2018-03-04T08:58:49.571Z,86.58
2018-03-04T08:59:49.434Z,86.72
2018-03-04T09:00:49.513Z,86.34
2018-03-04T09:01:49.383Z,85.96
2018-03-04T09:02:49.364Z,85.68
2018-03-04T09:03:49.342Z,85.3
2018-03-04T09:04:49.316Z,85.3
2018-03-04T09:05:49.291Z,85.39
2018-03-04T09:06:49.267Z,85.01
2018-03-04T09:07:49.244Z,85.01
2018-03-04T09:08:49.220Z,84.44
2018-03-04T09:09:49.195Z,84.63
2018-03-04T09:10:48.923Z,84.72
2018-03-04T09:11:48.900Z,84.63
2018-03-04T09:12:48.875Z,84.44
2018-03-04T09:13:49.104Z,84.63
2018-03-04T09:14:49.097Z,84.53
2018-03-04T09:15:49.051Z,84.63
2018-03-04T09:16:49.028Z,84.44
2018-03-04T09:17:49.006Z,84.44
2018-03-04T09:18:48.980Z,84.21
2018-03-04T09:19:48.984Z,84.82
2018-03-04T09:20:48.681Z,84.49
2018-03-04T09:21:48.908Z,84.59
2018-03-04T09:22:48.883Z,84.59
2018-03-04T09:23:48.610Z,84.68
2018-03-04T09:24:48.835Z,84.49
2018-03-04T09:25:48.811Z,84.49
2018-03-04T09:26:48.782Z,84.87
2018-03-04T09:27:48.759Z,85.06
2018-03-04T09:28:48.733Z,84.97
2018-03-04T09:29:48.460Z,84.68
2018-03-04T09:30:48.438Z,84.59
2018-03-04T09:31:48.677Z,84.78
2018-03-04T09:32:48.387Z,84.53
2018-03-04T09:33:48.362Z,84.44
2018-03-04T09:34:48.337Z,84.72
2018-03-04T09:35:48.564Z,84.25
2018-03-04T09:36:49.034Z,83.68
2018-03-04T09:37:48.516Z,84.06
2018-03-04T09:38:48.484Z,83.97
2018-03-04T09:39:48.462Z,83.59
2018-03-04T09:40:48.440Z,83.87
2018-03-04T09:41:48.414Z,83.3
2018-03-04T09:42:48.389Z,83.2
2018-03-04T09:43:48.364Z,83.49
2018-03-04T09:44:48.514Z,83.39
2018-03-04T09:45:48.312Z,83.59
2018-03-04T09:46:48.289Z,83.11
2018-03-04T09:47:48.016Z,82.92
2018-03-04T09:48:47.992Z,83.2
2018-03-04T09:49:48.215Z,83.01
2018-03-04T09:50:48.191Z,83.11
2018-03-04T09:51:48.170Z,83.11
2018-03-04T09:52:48.141Z,83.2
2018-03-04T09:53:48.115Z,83.2
2018-03-04T09:54:48.091Z,83.11
2018-03-04T09:55:47.818Z,82.92
2018-03-04T09:56:48.100Z,82.54
2018-03-04T09:57:48.020Z,82.73
2018-03-04T09:58:47.994Z,82.54
2018-03-04T09:59:47.964Z,82.82
2018-03-04T10:00:47.943Z,82.82
2018-03-04T10:01:47.918Z,82.64
2018-03-04T10:02:47.903Z,82.64
2018-03-04T10:03:47.620Z,82.64
2018-03-04T10:04:47.839Z,82.82
2018-03-04T10:05:47.816Z,82.54
2018-03-04T10:06:47.791Z,82.54
2018-03-04T10:07:47.768Z,82.64
2018-03-04T10:08:47.805Z,82.29
2018-03-04T10:09:47.720Z,82.39
2018-03-04T10:10:47.772Z,82.49
2018-03-04T10:11:47.417Z,82.39
2018-03-04T10:12:47.395Z,82.01
2018-03-04T10:13:47.615Z,81.92
2018-03-04T10:14:47.598Z,81.82
2018-03-04T10:15:47.320Z,82.1
2018-03-04T10:16:47.546Z,81.44
2018-03-04T10:17:47.518Z,81.54
2018-03-04T10:18:47.495Z,81.06
2018-03-04T10:19:47.468Z,81.54
2018-03-04T10:20:47.443Z,81.82
2018-03-04T10:21:47.425Z,81.63
2018-03-04T10:22:47.394Z,81.16
2018-03-04T10:23:47.377Z,81.16
2018-03-04T10:24:47.344Z,80.87
2018-03-04T10:25:47.325Z,80.82
2018-03-04T10:26:47.298Z,80.53
2018-03-04T10:27:47.276Z,80.34
2018-03-04T10:28:47.253Z,80.15
2018-03-04T10:29:47.227Z,79.86
2018-03-04T10:30:47.207Z,79.58
2018-03-04T10:31:46.932Z,79.3
2018-03-04T10:32:47.158Z,79.43
2018-03-04T10:33:47.135Z,79.05
2018-03-04T10:34:47.113Z,79.05
2018-03-04T10:35:47.087Z,78.57
2018-03-04T10:36:47.064Z,78.19
2018-03-04T10:37:47.043Z,78.1
2018-03-04T10:38:47.023Z,77.91
2018-03-04T10:39:47.025Z,78.04
2018-03-04T10:40:46.979Z,77.28
2018-03-04T10:41:46.953Z,77.66
2018-03-04T10:42:46.932Z,76.9
2018-03-04T10:43:46.913Z,76.71
2018-03-04T10:44:46.896Z,76.52
2018-03-04T10:45:46.912Z,77.28
2018-03-04T10:46:46.847Z,76.42
2018-03-04T10:47:46.587Z,76.04
2018-03-04T10:48:46.555Z,76.33
2018-03-04T10:49:46.785Z,75.6
2018-03-04T10:50:46.763Z,75.6
2018-03-04T10:51:46.747Z,75.89
2018-03-04T10:52:46.719Z,75.19
2018-03-04T10:53:46.728Z,75.47
2018-03-04T10:54:46.679Z,75.28
2018-03-04T10:55:46.658Z,75.38
2018-03-04T10:56:46.638Z,75.23
2018-03-04T10:57:46.616Z,74.9
2018-03-04T10:58:46.651Z,75.23
2018-03-04T10:59:46.575Z,74.65
2018-03-04T11:00:46.556Z,74.84
2018-03-04T11:01:46.531Z,74.71
2018-03-04T11:02:46.509Z,74.65
2018-03-04T11:03:46.489Z,74.37
2018-03-04T11:04:46.470Z,74.08
2018-03-04T11:05:46.449Z,74.46
2018-03-04T11:06:46.426Z,74.18
2018-03-04T11:07:46.408Z,73.7
2018-03-04T11:08:46.152Z,73.89
2018-03-04T11:09:46.181Z,73.41
2018-03-04T11:10:46.420Z,73.61
2018-03-04T11:11:46.324Z,73.61
2018-03-04T11:12:46.308Z,73.13
2018-03-04T11:13:46.037Z,73.41
2018-03-04T11:14:46.270Z,73.32
2018-03-04T11:15:46.250Z,73.41
2018-03-04T11:16:46.224Z,73.22
2018-03-04T11:17:46.201Z,73.13
2018-03-04T11:18:45.931Z,73.13
2018-03-04T11:19:45.912Z,73.13
2018-03-04T11:20:46.138Z,73.13
2018-03-04T11:21:46.116Z,73.03
2018-03-04T11:22:46.099Z,72.94
2018-03-04T11:23:45.828Z,73.03
2018-03-04T11:24:46.054Z,73.03
2018-03-04T11:25:46.032Z,72.94
2018-03-04T11:26:46.010Z,72.75
2018-03-04T11:27:45.988Z,72.46
2018-03-04T11:28:45.751Z,72.37
2018-03-04T11:29:45.948Z,72.75
2018-03-04T11:30:45.681Z,72.21
2018-03-04T11:31:45.910Z,72.31
2018-03-04T11:32:45.880Z,71.73
2018-03-04T11:33:45.857Z,71.17
2018-03-04T11:34:45.590Z,71.55
2018-03-04T11:35:45.567Z,71.45
2018-03-04T11:36:45.545Z,71.26
2018-03-04T11:37:45.525Z,70.97
2018-03-04T11:38:45.753Z,71.07
2018-03-04T11:39:45.729Z,71.36
2018-03-04T11:40:45.711Z,70.97
2018-03-04T11:41:45.438Z,70.78
2018-03-04T11:42:45.669Z,71.17
2018-03-04T11:43:45.648Z,70.5
2018-03-04T11:44:45.625Z,70.53
2018-03-04T11:45:45.604Z,70.25
2018-03-04T11:46:45.582Z,69.87
2018-03-04T11:47:45.567Z,69.77
2018-03-04T11:48:45.292Z,69.58
2018-03-04T11:49:45.535Z,69.39
2018-03-04T11:50:45.500Z,69.58
2018-03-04T11:51:45.481Z,69.96
2018-03-04T11:52:45.460Z,69.1
2018-03-04T11:53:45.440Z,69.1
2018-03-04T11:54:45.425Z,68.82
2018-03-04T11:55:45.516Z,68.82
2018-03-04T11:56:45.379Z,68.91
2018-03-04T11:57:45.357Z,68.72
2018-03-04T11:58:45.438Z,68.82
2018-03-04T11:59:45.068Z,68.66
2018-03-04T12:00:45.046Z,68.91
2018-03-04T12:01:45.273Z,68.66
2018-03-04T12:02:45.255Z,68.28
2018-03-04T12:03:45.240Z,68.09
2018-03-04T12:04:44.965Z,68.18
2018-03-04T12:05:44.945Z,68.18
2018-03-04T12:06:44.958Z,68.18
2018-03-04T12:07:45.151Z,68.18
2018-03-04T12:08:45.134Z,67.9
2018-03-04T12:09:45.176Z,67.61
2018-03-04T12:10:45.091Z,67.61
2018-03-04T12:11:45.070Z,67.52
2018-03-04T12:12:45.063Z,67.71
2018-03-04T12:13:45.080Z,67.42
2018-03-04T12:14:45.272Z,67.52
2018-03-04T12:15:44.996Z,67.14
2018-03-04T12:16:44.720Z,66.66
2018-03-04T12:17:44.949Z,66.85
2018-03-04T12:18:44.922Z,67.04
2018-03-04T12:19:44.903Z,67.23
2018-03-04T12:20:44.880Z,67.23
2018-03-04T12:21:44.862Z,67.33
2018-03-04T12:22:44.838Z,67.04
2018-03-04T12:23:44.826Z,66.94
2018-03-04T12:24:44.802Z,66.85
2018-03-04T12:25:44.527Z,66.47
2018-03-04T12:26:44.755Z,66.56
2018-03-04T12:27:44.735Z,66.66
2018-03-04T12:28:44.461Z,66.66
2018-03-04T12:29:44.686Z,66.75
2018-03-04T12:30:44.420Z,66.75
2018-03-04T12:31:44.399Z,66.56
2018-03-04T12:32:44.625Z,66.28
2018-03-04T12:33:44.602Z,66.47
2018-03-04T12:34:44.580Z,65.99
2018-03-04T12:35:44.559Z,65.99
2018-03-04T12:36:44.621Z,66.18
2018-03-04T12:37:44.512Z,65.89
2018-03-04T12:38:44.492Z,66.18
2018-03-04T12:39:44.474Z,66.18
2018-03-04T12:40:44.447Z,66.09
2018-03-04T12:41:44.424Z,66.09
2018-03-04T12:42:44.404Z,66.18
2018-03-04T12:43:44.386Z,66.38
2018-03-04T12:44:44.363Z,66.28
2018-03-04T12:45:44.338Z,65.89
2018-03-04T12:46:44.316Z,65.99
2018-03-04T12:47:44.294Z,65.52
2018-03-04T12:48:44.272Z,65.23
2018-03-04T12:49:44.248Z,65.52
2018-03-04T12:50:44.228Z,66.09
2018-03-04T12:51:44.205Z,65.52
2018-03-04T12:52:44.186Z,65.42
2018-03-04T12:53:44.161Z,65.52